Portada
METAR-TAF:

METAR-TAF

Aeroports :

Zabol, Iran

latitud: 31-20N, longitud: 061-29E, altitud: 489 m

Observació

L'informe es va fer fa 58 minuts, a les 04:00 UTC
Vent 18 kt del Nord
Temperatura 15°C
Humitat 48%
Pressió 1016 hPa
Visibilitat 10 km o més
sense núvols per sota de 1500 mi sense presència de cumulonimbus.

METAR: OIZB 200400Z 35018KT CAVOK 15/04 Q1016

Hora: 08:28 (04:58 UTC)


TAF: manca

Observacions i pronòstics meteorològics de més de 4000 aeroports (METAR i TAF).

Les estacions disponibles són els punts grocs i vermells al mapa.

Posi el ratolí al punt desitjat per veure el nom de l'estació.

Feu clic per veure les observacions i els pronòstics meteorològics.

Per canviar el mapa: feu clic els botons verds amb una creu de color negre per apropar; al botó verd amb un guió per allunyar la imatge; o en les fletxes verdes per a mapes adjacents.


METAR-TAF: